sensor_id;sensor_type;location;lat;lon;timestamp;P1;durP1;ratioP1;P2;durP2;ratioP2
48052;SDS011;33824;51.600;5.718;2022-08-01T00:01:30;13.23;;;6.70;;
48052;SDS011;33824;51.600;5.718;2022-08-01T00:03:56;15.27;;;6.35;;
48052;SDS011;33824;51.600;5.718;2022-08-01T00:06:22;12.20;;;6.18;;
48052;SDS011;33824;51.600;5.718;2022-08-01T00:08:47;17.35;;;7.35;;
48052;SDS011;33824;51.600;5.718;2022-08-01T00:11:13;20.08;;;7.40;;
48052;SDS011;33824;51.600;5.718;2022-08-01T00:13:39;12.05;;;6.85;;
48052;SDS011;33824;51.600;5.718;2022-08-01T00:16:05;16.27;;;7.35;;
48052;SDS011;33824;51.600;5.718;2022-08-01T00:18:31;12.23;;;6.30;;
48052;SDS011;33824;51.600;5.718;2022-08-01T00:20:57;18.30;;;7.75;;
48052;SDS011;33824;51.600;5.718;2022-08-01T00:23:22;13.25;;;6.70;;
48052;SDS011;33824;51.600;5.718;2022-08-01T00:25:48;11.27;;;7.60;;
48052;SDS011;33824;51.600;5.718;2022-08-01T00:28:16;15.55;;;6.68;;
48052;SDS011;33824;51.600;5.718;2022-08-01T00:30:42;15.07;;;6.97;;
48052;SDS011;33824;51.600;5.718;2022-08-01T00:33:08;18.52;;;7.97;;
48052;SDS011;33824;51.600;5.718;2022-08-01T00:35:34;17.88;;;7.43;;
48052;SDS011;33824;51.600;5.718;2022-08-01T00:38:04;15.82;;;7.95;;
48052;SDS011;33824;51.600;5.718;2022-08-01T00:40:30;14.88;;;7.32;;
48052;SDS011;33824;51.600;5.718;2022-08-01T00:43:07;16.05;;;8.13;;
48052;SDS011;33824;51.600;5.718;2022-08-01T00:45:32;14.35;;;7.90;;
48052;SDS011;33824;51.600;5.718;2022-08-01T00:47:58;13.75;;;7.78;;
48052;SDS011;33824;51.600;5.718;2022-08-01T00:50:27;15.85;;;8.25;;
48052;SDS011;33824;51.600;5.718;2022-08-01T00:52:53;15.45;;;7.60;;
48052;SDS011;33824;51.600;5.718;2022-08-01T00:55:20;19.80;;;8.35;;
48052;SDS011;33824;51.600;5.718;2022-08-01T00:57:46;15.02;;;8.50;;
48052;SDS011;33824;51.600;5.718;2022-08-01T01:00:13;16.80;;;8.68;;
48052;SDS011;33824;51.600;5.718;2022-08-01T01:02:39;16.20;;;8.73;;
48052;SDS011;33824;51.600;5.718;2022-08-01T01:05:05;14.10;;;8.13;;
48052;SDS011;33824;51.600;5.718;2022-08-01T01:07:37;14.15;;;8.40;;
48052;SDS011;33824;51.600;5.718;2022-08-01T01:13:02;21.55;;;9.18;;
48052;SDS011;33824;51.600;5.718;2022-08-01T01:15:43;17.27;;;9.00;;
48052;SDS011;33824;51.600;5.718;2022-08-01T01:35:21;19.40;;;9.27;;
48052;SDS011;33824;51.600;5.718;2022-08-01T01:41:03;14.10;;;8.18;;
48052;SDS011;33824;51.600;5.718;2022-08-01T01:43:39;14.63;;;7.80;;
48052;SDS011;33824;51.600;5.718;2022-08-01T01:46:15;16.52;;;8.75;;
48052;SDS011;33824;51.600;5.718;2022-08-01T01:49:08;15.55;;;8.50;;
48052;SDS011;33824;51.600;5.718;2022-08-01T01:51:36;14.23;;;8.45;;
48052;SDS011;33824;51.600;5.718;2022-08-01T01:54:06;15.13;;;8.13;;
48052;SDS011;33824;51.600;5.718;2022-08-01T01:56:40;18.77;;;8.70;;
48052;SDS011;33824;51.600;5.718;2022-08-01T01:59:15;14.93;;;7.55;;
48052;SDS011;33824;51.600;5.718;2022-08-01T02:04:11;11.88;;;6.78;;
48052;SDS011;33824;51.600;5.718;2022-08-01T02:06:39;12.80;;;7.53;;
48052;SDS011;33824;51.600;5.718;2022-08-01T02:09:05;11.73;;;7.97;;
48052;SDS011;33824;51.600;5.718;2022-08-01T02:11:33;16.83;;;8.10;;
48052;SDS011;33824;51.600;5.718;2022-08-01T02:14:02;13.75;;;7.28;;
48052;SDS011;33824;51.600;5.718;2022-08-01T02:16:31;11.40;;;7.28;;
48052;SDS011;33824;51.600;5.718;2022-08-01T02:19:03;11.43;;;6.95;;
48052;SDS011;33824;51.600;5.718;2022-08-01T02:21:49;13.43;;;7.20;;
48052;SDS011;33824;51.600;5.718;2022-08-01T02:24:24;16.52;;;8.35;;
48052;SDS011;33824;51.600;5.718;2022-08-01T02:26:58;12.45;;;7.00;;
48052;SDS011;33824;51.600;5.718;2022-08-01T02:29:32;14.45;;;7.28;;
48052;SDS011;33824;51.600;5.718;2022-08-01T02:32:03;10.77;;;6.43;;
48052;SDS011;33824;51.600;5.718;2022-08-01T02:34:30;11.70;;;6.90;;
48052;SDS011;33824;51.600;5.718;2022-08-01T02:36:58;11.45;;;6.50;;
48052;SDS011;33824;51.600;5.718;2022-08-01T02:39:25;12.68;;;6.38;;
48052;SDS011;33824;51.600;5.718;2022-08-01T02:41:55;12.10;;;7.03;;
48052;SDS011;33824;51.600;5.718;2022-08-01T02:44:30;9.60;;;6.32;;
48052;SDS011;33824;51.600;5.718;2022-08-01T02:47:02;11.52;;;6.68;;
48052;SDS011;33824;51.600;5.718;2022-08-01T02:49:33;11.50;;;6.82;;
48052;SDS011;33824;51.600;5.718;2022-08-01T02:52:13;10.57;;;6.43;;
48052;SDS011;33824;51.600;5.718;2022-08-01T02:54:44;11.38;;;6.75;;
48052;SDS011;33824;51.600;5.718;2022-08-01T02:57:13;11.18;;;6.93;;
48052;SDS011;33824;51.600;5.718;2022-08-01T02:59:43;11.77;;;7.35;;
